createdAt,value
2018-12-27T00:02:25.226Z,1.73
2018-12-27T00:04:52.424Z,1.60
2018-12-27T00:07:19.678Z,1.70
2018-12-27T00:09:46.872Z,1.60
2018-12-27T00:12:14.117Z,1.50
2018-12-27T00:14:41.353Z,2.23
2018-12-27T00:17:08.623Z,1.70
2018-12-27T00:19:35.799Z,2.40
2018-12-27T00:22:03.017Z,1.60
2018-12-27T00:24:30.313Z,2.00
2018-12-27T00:26:57.513Z,1.93
2018-12-27T00:29:24.736Z,1.77
2018-12-27T00:31:51.986Z,2.30
2018-12-27T00:34:19.173Z,2.03
2018-12-27T00:36:46.432Z,1.83
2018-12-27T00:39:13.716Z,2.10
2018-12-27T00:41:40.938Z,2.30
2018-12-27T00:44:08.139Z,1.87
2018-12-27T00:46:35.361Z,1.53
2018-12-27T00:49:02.573Z,1.70
2018-12-27T00:51:29.802Z,1.93
2018-12-27T00:53:57.941Z,1.63
2018-12-27T00:56:25.153Z,1.67
2018-12-27T00:58:52.386Z,2.00
2018-12-27T01:01:19.558Z,1.80
2018-12-27T01:03:46.812Z,1.50
2018-12-27T01:06:14.027Z,1.87
2018-12-27T01:08:41.354Z,1.80
2018-12-27T01:11:08.518Z,1.93
2018-12-27T01:13:35.700Z,1.80
2018-12-27T01:16:02.937Z,1.60
2018-12-27T01:18:30.153Z,1.70
2018-12-27T01:20:57.349Z,1.50
2018-12-27T01:23:24.572Z,2.13
2018-12-27T01:25:51.823Z,1.87
2018-12-27T01:28:19.038Z,1.60
2018-12-27T01:30:46.234Z,1.93
2018-12-27T01:33:18.687Z,1.90
2018-12-27T01:35:42.568Z,2.13
2018-12-27T01:38:09.919Z,1.67
2018-12-27T01:40:37.137Z,2.00
2018-12-27T01:43:04.369Z,1.97
2018-12-27T01:45:31.599Z,2.10
2018-12-27T01:47:58.802Z,1.90
2018-12-27T01:50:26.029Z,1.83
2018-12-27T01:52:53.208Z,2.07
2018-12-27T01:55:20.451Z,1.80
2018-12-27T01:57:47.680Z,2.10
2018-12-27T02:00:15.043Z,2.00
2018-12-27T02:02:42.199Z,2.33
2018-12-27T02:05:09.422Z,1.93
2018-12-27T02:07:36.668Z,2.00
2018-12-27T02:10:03.870Z,2.07
2018-12-27T02:12:31.097Z,2.10
2018-12-27T02:14:58.290Z,2.43
2018-12-27T02:17:25.619Z,2.20
2018-12-27T02:19:52.808Z,2.37
2018-12-27T02:22:19.989Z,2.27
2018-12-27T02:24:47.273Z,2.20
2018-12-27T02:27:14.504Z,2.17
2018-12-27T02:29:41.722Z,2.30
2018-12-27T02:32:08.966Z,2.13
2018-12-27T02:34:36.161Z,2.47
2018-12-27T02:37:03.323Z,2.47
2018-12-27T02:39:30.591Z,2.10
2018-12-27T02:41:57.850Z,2.23
2018-12-27T02:44:25.062Z,2.60
2018-12-27T02:46:52.217Z,2.10
2018-12-27T02:49:19.481Z,2.13
2018-12-27T02:51:46.668Z,2.30
2018-12-27T02:54:13.895Z,2.53
2018-12-27T02:56:41.100Z,2.20
2018-12-27T02:59:08.303Z,2.40
2018-12-27T03:01:35.510Z,2.33
2018-12-27T03:04:02.728Z,2.23
2018-12-27T03:06:29.973Z,2.40
2018-12-27T03:08:57.194Z,2.20
2018-12-27T03:11:24.363Z,2.73
2018-12-27T03:13:51.576Z,2.53
2018-12-27T03:16:18.783Z,2.70
2018-12-27T03:18:45.988Z,2.30
2018-12-27T03:21:13.328Z,2.97
2018-12-27T03:23:40.532Z,2.30
2018-12-27T03:26:07.729Z,2.70
2018-12-27T03:28:35.083Z,2.60
2018-12-27T03:31:02.283Z,2.17
2018-12-27T03:33:29.517Z,2.20
2018-12-27T03:35:56.738Z,2.07
2018-12-27T03:38:23.933Z,2.77
2018-12-27T03:40:51.220Z,2.97
2018-12-27T03:43:18.543Z,2.17
2018-12-27T03:45:45.776Z,2.43
2018-12-27T03:48:13.025Z,2.10
2018-12-27T03:50:40.234Z,3.33
2018-12-27T03:53:07.443Z,2.50
2018-12-27T03:55:34.636Z,3.23
2018-12-27T03:58:01.908Z,2.47
2018-12-27T04:00:29.097Z,2.90
2018-12-27T04:02:56.314Z,2.77
2018-12-27T04:05:23.497Z,2.63
2018-12-27T04:07:50.744Z,2.27
2018-12-27T04:10:17.890Z,2.50
2018-12-27T04:12:45.083Z,2.43
2018-12-27T04:15:12.355Z,2.30
2018-12-27T04:17:39.536Z,2.67
2018-12-27T04:20:06.746Z,2.53
2018-12-27T04:22:33.997Z,2.57
2018-12-27T04:25:01.258Z,2.43
2018-12-27T04:27:28.470Z,2.73
2018-12-27T04:29:55.758Z,2.20
2018-12-27T04:32:22.986Z,2.70
2018-12-27T04:34:50.169Z,2.80
2018-12-27T04:37:17.443Z,2.83
2018-12-27T04:39:44.662Z,2.73
2018-12-27T04:42:11.920Z,2.50
2018-12-27T04:44:39.189Z,2.10
2018-12-27T04:47:06.411Z,2.30
2018-12-27T04:49:33.669Z,2.37
2018-12-27T04:52:01.039Z,2.20
2018-12-27T04:54:28.290Z,2.70
2018-12-27T04:56:55.481Z,3.83
2018-12-27T04:59:22.713Z,2.37
2018-12-27T05:01:49.934Z,2.47
2018-12-27T05:04:18.318Z,2.53
2018-12-27T05:06:45.900Z,3.00
2018-12-27T05:09:13.135Z,2.37
2018-12-27T05:11:40.323Z,2.40
2018-12-27T05:14:07.563Z,2.63
2018-12-27T05:16:34.761Z,2.53
2018-12-27T05:19:01.981Z,2.13
2018-12-27T05:21:29.177Z,2.70
2018-12-27T05:23:56.353Z,2.47
2018-12-27T05:26:23.582Z,2.80
2018-12-27T05:28:50.769Z,2.30
2018-12-27T05:31:18.012Z,2.20
2018-12-27T05:33:45.229Z,2.10
2018-12-27T05:36:12.413Z,2.60
2018-12-27T05:38:39.508Z,2.87
2018-12-27T05:41:06.749Z,2.53
2018-12-27T05:43:33.960Z,1.93
2018-12-27T05:46:01.152Z,2.27
2018-12-27T05:48:28.416Z,2.23
2018-12-27T05:50:55.616Z,2.67
2018-12-27T05:53:22.789Z,1.90
2018-12-27T05:55:50.013Z,2.60
2018-12-27T05:58:17.250Z,2.20
2018-12-27T06:00:44.470Z,2.10
2018-12-27T06:03:11.707Z,2.17
2018-12-27T06:05:38.905Z,2.03
2018-12-27T06:08:06.129Z,2.23
2018-12-27T06:10:33.313Z,2.33
2018-12-27T06:13:00.555Z,2.33
2018-12-27T06:15:27.748Z,1.80
2018-12-27T06:17:54.959Z,2.30
2018-12-27T06:20:22.153Z,2.33
2018-12-27T06:22:49.344Z,2.10
2018-12-27T06:25:16.557Z,2.30
2018-12-27T06:27:43.776Z,2.53
2018-12-27T06:30:10.970Z,2.67
2018-12-27T06:32:38.184Z,2.03
2018-12-27T06:35:05.371Z,2.03
2018-12-27T06:40:06.315Z,2.40
2018-12-27T06:42:33.569Z,2.07
2018-12-27T06:45:00.793Z,2.40
2018-12-27T06:47:27.973Z,1.80
2018-12-27T06:49:55.184Z,2.20
2018-12-27T06:52:22.408Z,2.20
2018-12-27T06:54:49.566Z,2.10
2018-12-27T06:57:16.746Z,2.43
2018-12-27T06:59:44.080Z,2.40
2018-12-27T07:02:11.275Z,2.33
2018-12-27T07:04:38.467Z,2.40
2018-12-27T07:07:05.725Z,2.50
2018-12-27T07:09:32.964Z,2.30
2018-12-27T07:12:00.171Z,2.43
2018-12-27T07:14:27.385Z,2.30
2018-12-27T07:19:49.248Z,2.43
2018-12-27T07:22:16.441Z,2.00
2018-12-27T07:24:43.621Z,2.17
2018-12-27T07:27:10.844Z,2.03
2018-12-27T07:29:38.006Z,2.03
2018-12-27T07:32:05.369Z,2.27
2018-12-27T07:34:32.571Z,2.70
2018-12-27T07:36:59.917Z,1.90
2018-12-27T07:39:27.081Z,1.77
2018-12-27T07:41:54.290Z,2.47
2018-12-27T07:44:21.559Z,2.37
2018-12-27T07:46:48.743Z,2.10
2018-12-27T07:49:15.966Z,2.30
2018-12-27T07:51:43.169Z,2.10
2018-12-27T07:54:10.369Z,2.00
2018-12-27T07:56:37.594Z,2.20
2018-12-27T07:59:04.886Z,2.43
2018-12-27T08:01:32.101Z,2.30
2018-12-27T08:03:59.287Z,1.97
2018-12-27T08:06:26.625Z,2.37
2018-12-27T08:08:53.808Z,2.10
2018-12-27T08:11:21.016Z,2.57
2018-12-27T08:13:48.239Z,2.57
2018-12-27T08:16:15.428Z,2.13
2018-12-27T08:18:42.690Z,3.10
2018-12-27T08:21:09.913Z,2.60
2018-12-27T08:23:37.101Z,2.33
2018-12-27T08:26:04.437Z,2.20
2018-12-27T08:28:31.635Z,2.60
2018-12-27T08:30:58.820Z,2.50
2018-12-27T08:33:26.082Z,2.70
2018-12-27T08:36:12.749Z,2.10
2018-12-27T08:38:40.076Z,2.80
2018-12-27T08:41:07.237Z,2.63
2018-12-27T08:43:34.463Z,2.40
2018-12-27T08:46:01.750Z,2.43
2018-12-27T08:48:28.934Z,2.60
2018-12-27T08:50:56.223Z,2.70
2018-12-27T08:53:23.428Z,2.93
2018-12-27T08:55:50.618Z,2.70
2018-12-27T08:58:37.280Z,2.63
2018-12-27T09:01:04.490Z,2.30
2018-12-27T09:03:51.219Z,2.73
2018-12-27T09:06:18.415Z,2.37
2018-12-27T09:08:45.596Z,2.53
2018-12-27T09:11:12.894Z,2.33
2018-12-27T09:13:40.070Z,2.33
2018-12-27T09:16:07.300Z,2.80
2018-12-27T09:18:34.480Z,2.87
2018-12-27T09:21:01.716Z,2.83
2018-12-27T09:23:28.888Z,2.97
2018-12-27T09:25:56.062Z,2.50
2018-12-27T09:28:23.257Z,2.77
2018-12-27T09:30:50.422Z,2.70
2018-12-27T09:33:17.613Z,2.37
2018-12-27T09:35:44.833Z,2.17
2018-12-27T09:38:12.165Z,2.53
2018-12-27T09:40:39.380Z,2.50
2018-12-27T09:43:06.564Z,2.50
2018-12-27T09:45:33.820Z,3.30
2018-12-27T09:48:01.035Z,2.67
2018-12-27T09:50:28.238Z,2.60
2018-12-27T09:52:55.471Z,2.73
2018-12-27T09:55:22.663Z,2.53
2018-12-27T09:57:49.998Z,2.67
2018-12-27T10:00:17.193Z,2.83
2018-12-27T10:02:44.391Z,2.63
2018-12-27T10:05:11.584Z,2.70
2018-12-27T10:07:38.771Z,2.73
2018-12-27T10:10:06.256Z,2.50
2018-12-27T10:12:33.403Z,2.50
2018-12-27T10:15:00.600Z,3.00
2018-12-27T10:17:27.848Z,2.60
2018-12-27T10:19:55.015Z,2.17
2018-12-27T10:22:22.286Z,2.53
2018-12-27T10:24:49.462Z,2.57
2018-12-27T10:27:16.632Z,2.73
2018-12-27T10:29:43.870Z,2.40
2018-12-27T10:32:11.107Z,2.63
2018-12-27T10:34:38.286Z,2.90
2018-12-27T10:37:05.608Z,2.80
2018-12-27T10:39:32.809Z,2.60
2018-12-27T10:42:00.082Z,2.37
2018-12-27T10:44:27.258Z,3.00
2018-12-27T10:46:54.498Z,2.60
2018-12-27T10:49:21.713Z,2.37
2018-12-27T10:51:48.984Z,2.63
2018-12-27T10:54:16.145Z,2.83
2018-12-27T10:56:43.371Z,3.20
2018-12-27T10:59:10.612Z,2.60
2018-12-27T11:01:37.820Z,3.30
2018-12-27T11:04:05.026Z,2.93
2018-12-27T11:06:32.255Z,2.63
2018-12-27T11:08:59.450Z,2.87
2018-12-27T11:11:26.695Z,3.57
2018-12-27T11:14:13.305Z,2.70
2018-12-27T11:16:40.549Z,3.30
2018-12-27T11:19:07.729Z,2.47
2018-12-27T11:21:35.048Z,2.83
2018-12-27T11:24:02.228Z,2.60
2018-12-27T11:26:29.429Z,3.23
2018-12-27T11:28:56.671Z,3.37
2018-12-27T11:31:23.829Z,3.23
2018-12-27T11:33:51.049Z,3.73
2018-12-27T11:36:37.637Z,3.17
2018-12-27T11:39:05.457Z,2.77
2018-12-27T11:41:32.661Z,3.00
2018-12-27T11:43:59.893Z,3.43
2018-12-27T11:46:27.094Z,3.07
2018-12-27T11:48:54.313Z,2.80
2018-12-27T11:51:21.559Z,3.40
2018-12-27T11:53:48.786Z,4.03
2018-12-27T11:56:16.064Z,3.70
2018-12-27T11:58:43.319Z,3.70
2018-12-27T12:01:10.529Z,3.47
2018-12-27T12:03:37.731Z,3.30
2018-12-27T12:06:04.952Z,3.70
2018-12-27T12:08:32.121Z,3.20
2018-12-27T12:10:59.373Z,2.57
2018-12-27T12:13:26.546Z,3.17
2018-12-27T12:15:53.856Z,3.53
2018-12-27T12:18:21.098Z,3.00
2018-12-27T12:20:48.274Z,4.00
2018-12-27T12:23:15.508Z,3.37
2018-12-27T12:25:42.693Z,3.50
2018-12-27T12:28:09.900Z,3.47
2018-12-27T12:30:37.132Z,3.10
2018-12-27T12:33:04.322Z,3.00
2018-12-27T12:35:31.555Z,3.53
2018-12-27T12:37:58.807Z,4.00
2018-12-27T12:40:26.028Z,3.60
2018-12-27T12:42:53.205Z,3.23
2018-12-27T12:45:20.523Z,2.67
2018-12-27T12:47:47.738Z,3.30
2018-12-27T12:50:14.919Z,3.03
2018-12-27T12:52:42.163Z,3.60
2018-12-27T12:55:09.412Z,3.33
2018-12-27T12:57:36.588Z,3.00
2018-12-27T13:00:05.695Z,3.30
2018-12-27T13:02:32.957Z,3.20
2018-12-27T13:05:00.245Z,3.40
2018-12-27T13:07:27.542Z,3.10
2018-12-27T13:09:54.785Z,3.53
2018-12-27T13:12:21.984Z,3.50
2018-12-27T13:14:49.300Z,4.07
2018-12-27T13:17:16.471Z,3.20
2018-12-27T13:19:43.685Z,3.87
2018-12-27T13:22:11.002Z,3.53
2018-12-27T13:24:38.188Z,3.60
2018-12-27T13:27:05.346Z,3.23
2018-12-27T13:29:32.550Z,3.50
2018-12-27T13:31:59.744Z,3.20
2018-12-27T13:34:26.941Z,3.57
2018-12-27T13:36:54.179Z,3.47
2018-12-27T13:39:21.372Z,3.30
2018-12-27T13:41:48.578Z,4.00
2018-12-27T13:44:15.808Z,2.80
2018-12-27T13:46:43.090Z,3.83
2018-12-27T13:49:10.281Z,3.30
2018-12-27T13:51:37.560Z,3.20
2018-12-27T13:54:04.741Z,3.13
2018-12-27T13:56:32.002Z,3.40
2018-12-27T13:58:59.411Z,3.60
2018-12-27T14:01:26.617Z,3.33
2018-12-27T14:03:53.852Z,3.10
2018-12-27T14:06:21.185Z,3.00
2018-12-27T14:08:48.364Z,3.13
2018-12-27T14:11:35.100Z,3.60
2018-12-27T14:14:02.287Z,3.17
2018-12-27T14:16:29.468Z,3.00
2018-12-27T14:18:56.690Z,3.13
2018-12-27T14:21:23.868Z,3.30
2018-12-27T14:23:51.044Z,3.40
2018-12-27T14:26:18.297Z,3.77
2018-12-27T14:28:45.591Z,3.13
2018-12-27T14:31:12.920Z,3.73
2018-12-27T14:33:40.093Z,3.37
2018-12-27T14:36:07.272Z,2.90
2018-12-27T14:38:34.503Z,2.93
2018-12-27T14:41:01.710Z,2.97
2018-12-27T14:43:28.929Z,3.20
2018-12-27T14:45:56.220Z,3.40
2018-12-27T14:48:23.494Z,2.77
2018-12-27T14:50:50.717Z,3.00
2018-12-27T14:53:17.886Z,3.43
2018-12-27T14:55:45.104Z,2.77
2018-12-27T14:58:12.316Z,3.20
2018-12-27T15:00:39.538Z,3.20
2018-12-27T15:03:06.720Z,3.20
2018-12-27T15:05:33.920Z,3.20
2018-12-27T15:08:01.122Z,3.20
2018-12-27T15:10:28.330Z,3.10
2018-12-27T15:12:55.665Z,3.40
2018-12-27T15:15:22.854Z,3.87
2018-12-27T15:17:50.023Z,3.00
2018-12-27T15:20:17.353Z,3.17
2018-12-27T15:23:03.966Z,3.80
2018-12-27T15:25:31.247Z,3.33
2018-12-27T15:27:58.444Z,2.83
2018-12-27T15:30:25.724Z,3.43
2018-12-27T15:32:53.052Z,3.40
2018-12-27T15:35:20.263Z,3.00
2018-12-27T15:37:47.447Z,2.90
2018-12-27T15:40:14.703Z,3.10
2018-12-27T15:42:41.875Z,2.83
2018-12-27T15:45:28.662Z,3.07
2018-12-27T15:47:55.888Z,3.03
2018-12-27T15:50:23.136Z,3.10
2018-12-27T15:52:50.306Z,2.67
2018-12-27T15:55:17.487Z,2.83
2018-12-27T15:57:44.740Z,3.00
2018-12-27T16:00:11.939Z,3.30
2018-12-27T16:02:39.132Z,3.20
2018-12-27T16:05:06.403Z,2.70
2018-12-27T16:07:33.588Z,3.17
2018-12-27T16:10:00.749Z,3.20
2018-12-27T16:12:28.073Z,2.80
2018-12-27T16:14:55.240Z,2.83
2018-12-27T16:17:22.919Z,3.33
2018-12-27T16:19:50.167Z,3.20
2018-12-27T16:22:17.397Z,2.90
2018-12-27T16:24:44.600Z,2.70
2018-12-27T16:27:11.852Z,2.93
2018-12-27T16:29:39.037Z,3.03
2018-12-27T16:32:06.242Z,3.30
2018-12-27T16:34:33.467Z,2.67
2018-12-27T16:37:00.653Z,2.50
2018-12-27T16:39:27.936Z,3.23
2018-12-27T16:41:55.273Z,3.27
2018-12-27T16:44:22.469Z,2.97
2018-12-27T16:46:49.816Z,3.37
2018-12-27T16:49:17.048Z,3.13
2018-12-27T16:51:44.227Z,2.90
2018-12-27T16:54:11.539Z,3.53
2018-12-27T16:56:38.734Z,3.30
2018-12-27T16:59:25.420Z,2.90
2018-12-27T17:02:12.052Z,3.60
2018-12-27T17:04:39.390Z,2.53
2018-12-27T17:07:25.999Z,3.40
2018-12-27T17:09:53.255Z,2.83
2018-12-27T17:12:39.850Z,2.93
2018-12-27T17:15:07.121Z,3.60
2018-12-27T17:17:34.366Z,3.63
2018-12-27T17:20:01.586Z,2.90
2018-12-27T17:22:28.889Z,3.50
2018-12-27T17:24:56.078Z,2.50
2018-12-27T17:30:12.547Z,3.23
2018-12-27T17:32:39.766Z,3.70
2018-12-27T17:35:06.947Z,3.20
2018-12-27T17:37:34.164Z,3.93
2018-12-27T17:40:01.408Z,3.20
2018-12-27T17:42:28.609Z,3.83
2018-12-27T17:44:55.874Z,3.53
2018-12-27T17:47:23.134Z,3.57
2018-12-27T17:49:50.358Z,3.53
2018-12-27T17:52:17.561Z,3.50
2018-12-27T17:54:44.728Z,4.20
2018-12-27T17:57:12.001Z,3.33
2018-12-27T17:59:39.192Z,3.13
2018-12-27T18:02:06.391Z,3.33
2018-12-27T18:04:33.609Z,3.60
2018-12-27T18:07:00.972Z,3.67
2018-12-27T18:09:28.137Z,3.20
2018-12-27T18:11:55.327Z,3.17
2018-12-27T18:14:22.644Z,3.10
2018-12-27T18:16:49.859Z,3.07
2018-12-27T18:19:17.042Z,3.13
2018-12-27T18:21:44.283Z,3.50
2018-12-27T18:24:11.522Z,3.40
2018-12-27T18:26:38.692Z,3.97
2018-12-27T18:29:06.007Z,3.63
2018-12-27T18:31:33.197Z,3.30
2018-12-27T18:34:00.381Z,3.20
2018-12-27T18:36:27.687Z,3.47
2018-12-27T18:38:54.883Z,4.00
2018-12-27T18:41:22.050Z,3.70
2018-12-27T18:43:49.255Z,3.50
2018-12-27T18:46:16.492Z,3.73
2018-12-27T18:48:43.740Z,3.57
2018-12-27T18:51:10.959Z,3.10
2018-12-27T18:53:38.169Z,3.60
2018-12-27T18:56:05.404Z,3.40
2018-12-27T18:58:32.606Z,3.70
2018-12-27T19:00:59.819Z,3.20
2018-12-27T19:03:27.037Z,3.53
2018-12-27T19:05:54.212Z,3.37
2018-12-27T19:08:21.457Z,3.40
2018-12-27T19:11:27.514Z,3.57
2018-12-27T19:13:54.689Z,2.90
2018-12-27T19:16:21.932Z,3.53
2018-12-27T19:18:49.537Z,3.57
2018-12-27T19:21:40.593Z,3.50
2018-12-27T19:24:07.821Z,3.47
2018-12-27T19:26:35.086Z,3.40
2018-12-27T19:29:02.294Z,3.20
2018-12-27T19:31:29.520Z,3.40
2018-12-27T19:33:56.767Z,3.27
2018-12-27T19:36:23.966Z,3.83
2018-12-27T19:38:51.190Z,3.40
2018-12-27T19:41:18.380Z,3.43
2018-12-27T19:43:45.748Z,3.60
2018-12-27T19:46:12.944Z,3.20
2018-12-27T19:48:40.209Z,3.30
2018-12-27T19:51:07.551Z,3.57
2018-12-27T19:53:34.739Z,3.10
2018-12-27T19:56:01.935Z,3.67
2018-12-27T19:58:29.174Z,3.40
2018-12-27T20:00:56.400Z,3.27
2018-12-27T20:03:23.675Z,4.30
2018-12-27T20:05:50.882Z,3.40
2018-12-27T20:08:18.120Z,3.77
2018-12-27T20:10:45.332Z,4.20
2018-12-27T20:13:12.526Z,3.10
2018-12-27T20:15:39.799Z,4.30
2018-12-27T20:18:06.983Z,3.33
2018-12-27T20:20:34.192Z,3.60
2018-12-27T20:23:01.480Z,3.83
2018-12-27T20:25:48.114Z,3.20
2018-12-27T20:28:15.324Z,3.10
2018-12-27T20:30:42.540Z,3.50
2018-12-27T20:33:09.779Z,3.70
2018-12-27T20:35:36.973Z,3.33
2018-12-27T20:38:06.871Z,4.07
2018-12-27T20:40:33.338Z,4.03
2018-12-27T20:43:00.549Z,3.67
2018-12-27T20:45:47.185Z,3.57
2018-12-27T20:48:14.397Z,3.40
2018-12-27T20:51:01.056Z,3.80
2018-12-27T20:53:28.285Z,4.50
2018-12-27T20:55:55.525Z,3.93
2018-12-27T20:58:22.737Z,3.77
2018-12-27T21:00:49.978Z,3.97
2018-12-27T21:05:50.266Z,4.07
2018-12-27T21:08:17.441Z,3.40
2018-12-27T21:10:44.687Z,4.20
2018-12-27T21:13:31.433Z,4.00
2018-12-27T21:15:58.651Z,4.37
2018-12-27T21:18:25.865Z,4.33
2018-12-27T21:20:53.102Z,4.10
2018-12-27T21:23:20.434Z,4.10
2018-12-27T21:25:47.644Z,4.07
2018-12-27T21:28:14.857Z,3.87
2018-12-27T21:30:42.119Z,5.10
2018-12-27T21:33:28.747Z,4.20
2018-12-27T21:35:55.996Z,3.47
2018-12-27T21:38:42.586Z,3.90
2018-12-27T21:41:09.794Z,4.20
2018-12-27T21:43:56.384Z,4.00
2018-12-27T21:46:23.640Z,4.03
2018-12-27T21:48:50.849Z,3.70
2018-12-27T21:51:37.665Z,4.33
2018-12-27T21:54:04.850Z,3.80
2018-12-27T21:56:32.028Z,4.57
2018-12-27T21:58:59.242Z,4.10
2018-12-27T22:01:45.864Z,4.10
2018-12-27T22:04:13.120Z,3.93
2018-12-27T22:06:40.341Z,3.97
2018-12-27T22:09:27.075Z,3.40
2018-12-27T22:11:54.253Z,4.07
2018-12-27T22:14:21.470Z,3.70
2018-12-27T22:16:48.817Z,3.50
2018-12-27T22:19:15.990Z,3.80
2018-12-27T22:21:43.178Z,4.10
2018-12-27T22:24:10.447Z,4.10
2018-12-27T22:26:37.738Z,4.23
2018-12-27T22:29:05.022Z,4.00
2018-12-27T22:31:32.402Z,4.00
2018-12-27T22:33:59.568Z,4.33
2018-12-27T22:36:26.817Z,4.30
2018-12-27T22:38:54.016Z,4.10
2018-12-27T22:41:21.362Z,4.50
2018-12-27T22:44:07.981Z,4.00
2018-12-27T22:46:54.724Z,3.80
2018-12-27T22:49:41.337Z,4.30
2018-12-27T22:52:27.981Z,4.53
2018-12-27T22:54:55.157Z,3.73
2018-12-27T22:57:22.516Z,4.37
2018-12-27T22:59:49.739Z,4.50
2018-12-27T23:02:16.941Z,3.93
2018-12-27T23:05:03.749Z,4.10
2018-12-27T23:07:30.953Z,3.83
2018-12-27T23:09:58.250Z,4.57
2018-12-27T23:12:25.420Z,3.43
2018-12-27T23:14:52.766Z,3.77
2018-12-27T23:17:32.867Z,4.30
2018-12-27T23:20:00.172Z,4.03
2018-12-27T23:22:27.389Z,4.30
2018-12-27T23:24:54.550Z,3.80
2018-12-27T23:27:21.788Z,4.00
2018-12-27T23:29:49.011Z,3.50
2018-12-27T23:32:16.228Z,3.30
2018-12-27T23:34:43.499Z,3.70
2018-12-27T23:37:10.681Z,3.77
2018-12-27T23:39:37.899Z,4.30
2018-12-27T23:42:05.088Z,4.13
2018-12-27T23:44:32.373Z,4.53
2018-12-27T23:46:59.611Z,5.27
2018-12-27T23:49:26.796Z,3.97
2018-12-27T23:51:54.014Z,4.60
2018-12-27T23:54:21.218Z,4.00
2018-12-27T23:56:48.473Z,4.80
2018-12-27T23:59:15.817Z,3.73
